This is the latest recevied weather packets stored in our database for station/object KF7SOJ. If no packets are shown the sender has not sent any weather packets the latest 1 day(s).
| Time | Temp. | Humidity | Pressure | Rain* | Wind** | Luminosity | Snow |
|---|---|---|---|---|---|---|---|
| 1836274685 | 18.89° C | 50% | 932.7 hPa | 0 mm | 0 m/s | 0 W/m² | - |
| 1836274537 | 18.33° C | 52% | 932.6 hPa | 0 mm | 0.45 m/s, 305° | 0 W/m² | - |
| 1836274383 | 18.89° C | 51% | 932.8 hPa | 0 mm | 0 m/s | 0 W/m² | - |
| 1836274236 | 18.89° C | 52% | 932.8 hPa | 0 mm | 0.45 m/s, 254° | 0 W/m² | - |
| 1836274081 | 18.33° C | 52% | 932.7 hPa | 0 mm | 0 m/s | 0 W/m² | - |
| 1778067038 | -1.67° C | 60% | 934.9 hPa | 0 mm | 1.79 m/s, 292° | 0 W/m² | - |
| 1778066734 | -1.67° C | 61% | 934.9 hPa | 0 mm | 2.24 m/s, 307° | 0 W/m² | - |
| 1778066431 | -1.67° C | 60% | 934.7 hPa | 0 mm | 2.24 m/s, 245° | 0 W/m² | - |
| 1778066130 | -1.11° C | 59% | 934.8 hPa | 0 mm | 3.13 m/s, 250° | 0 W/m² | - |
| 1778065826 | -1.11° C | 60% | 934.4 hPa | 0 mm | 3.58 m/s, 240° | 0 W/m² | - |
| 1778065524 | -1.11° C | 60% | 934.7 hPa | 0 mm | 3.13 m/s, 246° | 0 W/m² | - |
| 1778065221 | -1.67° C | 59% | 934.8 hPa | 0 mm | 2.24 m/s, 256° | 0 W/m² | - |
| 1778064917 | -1.11° C | 59% | 934.8 hPa | 0 mm | 1.79 m/s, 249° | 0 W/m² | - |
| 1778064614 | -2.22° C | 61% | 935 hPa | 0 mm | 1.79 m/s, 241° | 0 W/m² | - |
| 1778064313 | -1.67° C | 58% | 935 hPa | 0 mm | 0 m/s | 0 W/m² | - |
| 1778064010 | -1.67° C | 59% | 934.9 hPa | 0 mm | 1.34 m/s, 242° | 0 W/m² | - |
| 1778063707 | -1.67° C | 58% | 935 hPa | 0 mm | 1.34 m/s, 245° | 0 W/m² | - |
| 1778063404 | -1.67° C | 59% | 935 hPa | 0 mm | 0.89 m/s, 287° | 0 W/m² | - |
| 1778063102 | -1.67° C | 58% | 935 hPa | 0 mm | 0.89 m/s, 250° | 0 W/m² | - |
| 1778062799 | -1.67° C | 59% | 935.3 hPa | 0 mm | 0.89 m/s, 215° | 0 W/m² | - |
| 1778062495 | -2.22° C | 61% | 935.1 hPa | 0 mm | 0.89 m/s, 88° | 0 W/m² | - |
| 1778062193 | -2.22° C | 61% | 934.9 hPa | 0 mm | 0.89 m/s, 98° | 0 W/m² | - |
| 1778061891 | -2.22° C | 61% | 934.9 hPa | 0 mm | 0.89 m/s, 121° | 0 W/m² | - |
| 1778061589 | -2.22° C | 60% | 934.8 hPa | 0 mm | 1.34 m/s, 135° | 0 W/m² | - |
| 1778061287 | -1.67° C | 60% | 934.8 hPa | 0 mm | 0.45 m/s, 138° | 0 W/m² | - |
* Rain latest hour (hover to see other rain measurements)
** Current wind speed in m/s (hover to see current wind gust speed)